sensor_id;sensor_type;location;lat;lon;timestamp;P1;durP1;ratioP1;P2;durP2;ratioP2
71655;SDS011;59497;48.798;8.816;2023-05-19T00:01:06;4.80;;;2.05;;
71655;SDS011;59497;48.798;8.816;2023-05-19T00:03:33;5.90;;;2.90;;
71655;SDS011;59497;48.798;8.816;2023-05-19T00:06:00;4.22;;;2.50;;
71655;SDS011;59497;48.798;8.816;2023-05-19T00:08:25;5.40;;;2.40;;
71655;SDS011;59497;48.798;8.816;2023-05-19T00:10:54;4.93;;;2.57;;
71655;SDS011;59497;48.798;8.816;2023-05-19T00:13:19;3.67;;;2.00;;
71655;SDS011;59497;48.798;8.816;2023-05-19T00:15:45;5.57;;;2.22;;
71655;SDS011;59497;48.798;8.816;2023-05-19T00:18:10;8.17;;;2.70;;
71655;SDS011;59497;48.798;8.816;2023-05-19T00:20:37;4.40;;;2.28;;
71655;SDS011;59497;48.798;8.816;2023-05-19T00:23:02;9.47;;;2.77;;
71655;SDS011;59497;48.798;8.816;2023-05-19T00:25:28;5.83;;;2.17;;
71655;SDS011;59497;48.798;8.816;2023-05-19T00:27:53;4.33;;;2.10;;
71655;SDS011;59497;48.798;8.816;2023-05-19T00:30:18;5.03;;;2.60;;
71655;SDS011;59497;48.798;8.816;2023-05-19T00:32:43;3.70;;;2.20;;
71655;SDS011;59497;48.798;8.816;2023-05-19T00:35:08;4.63;;;2.23;;
71655;SDS011;59497;48.798;8.816;2023-05-19T00:37:33;4.63;;;2.20;;
71655;SDS011;59497;48.798;8.816;2023-05-19T00:39:59;5.03;;;2.30;;
71655;SDS011;59497;48.798;8.816;2023-05-19T00:42:24;6.50;;;2.33;;
71655;SDS011;59497;48.798;8.816;2023-05-19T00:44:49;6.07;;;2.33;;
71655;SDS011;59497;48.798;8.816;2023-05-19T00:47:15;5.80;;;2.40;;
71655;SDS011;59497;48.798;8.816;2023-05-19T00:49:40;4.73;;;1.90;;
71655;SDS011;59497;48.798;8.816;2023-05-19T00:52:05;4.13;;;2.27;;
71655;SDS011;59497;48.798;8.816;2023-05-19T00:54:31;5.93;;;1.95;;
71655;SDS011;59497;48.798;8.816;2023-05-19T00:56:57;3.97;;;2.17;;
71655;SDS011;59497;48.798;8.816;2023-05-19T00:59:23;2.88;;;1.85;;
71655;SDS011;59497;48.798;8.816;2023-05-19T01:01:48;5.03;;;2.83;;
71655;SDS011;59497;48.798;8.816;2023-05-19T01:04:15;5.63;;;2.43;;
71655;SDS011;59497;48.798;8.816;2023-05-19T01:06:41;5.40;;;2.20;;
71655;SDS011;59497;48.798;8.816;2023-05-19T01:09:06;5.17;;;1.80;;
71655;SDS011;59497;48.798;8.816;2023-05-19T01:11:31;3.23;;;1.73;;
71655;SDS011;59497;48.798;8.816;2023-05-19T01:13:56;5.33;;;2.53;;
71655;SDS011;59497;48.798;8.816;2023-05-19T01:16:36;3.33;;;2.00;;
71655;SDS011;59497;48.798;8.816;2023-05-19T01:19:20;5.30;;;1.95;;
71655;SDS011;59497;48.798;8.816;2023-05-19T01:24:42;5.57;;;2.33;;
71655;SDS011;59497;48.798;8.816;2023-05-19T01:27:20;5.07;;;2.30;;
71655;SDS011;59497;48.798;8.816;2023-05-19T01:32:16;4.63;;;2.00;;
71655;SDS011;59497;48.798;8.816;2023-05-19T01:34:45;3.50;;;2.17;;
71655;SDS011;59497;48.798;8.816;2023-05-19T01:37:11;3.88;;;1.92;;
71655;SDS011;59497;48.798;8.816;2023-05-19T01:39:37;3.83;;;2.20;;
71655;SDS011;59497;48.798;8.816;2023-05-19T01:42:03;5.57;;;2.08;;
71655;SDS011;59497;48.798;8.816;2023-05-19T01:44:28;4.67;;;2.20;;
71655;SDS011;59497;48.798;8.816;2023-05-19T01:46:54;3.35;;;2.10;;
71655;SDS011;59497;48.798;8.816;2023-05-19T01:49:19;6.13;;;2.17;;
71655;SDS011;59497;48.798;8.816;2023-05-19T01:51:44;5.03;;;1.60;;
71655;SDS011;59497;48.798;8.816;2023-05-19T01:54:09;2.80;;;1.87;;
71655;SDS011;59497;48.798;8.816;2023-05-19T01:56:44;6.73;;;2.30;;
71655;SDS011;59497;48.798;8.816;2023-05-19T01:59:15;3.90;;;1.90;;
71655;SDS011;59497;48.798;8.816;2023-05-19T02:01:50;4.00;;;1.73;;
71655;SDS011;59497;48.798;8.816;2023-05-19T02:04:24;4.40;;;2.10;;
71655;SDS011;59497;48.798;8.816;2023-05-19T02:06:56;5.45;;;2.03;;
71655;SDS011;59497;48.798;8.816;2023-05-19T02:09:31;5.75;;;2.28;;
71655;SDS011;59497;48.798;8.816;2023-05-19T02:12:02;5.57;;;1.85;;
71655;SDS011;59497;48.798;8.816;2023-05-19T02:14:48;5.50;;;2.27;;
71655;SDS011;59497;48.798;8.816;2023-05-19T02:17:14;6.05;;;1.98;;
71655;SDS011;59497;48.798;8.816;2023-05-19T02:19:42;4.00;;;1.92;;
71655;SDS011;59497;48.798;8.816;2023-05-19T02:22:07;5.30;;;2.40;;
71655;SDS011;59497;48.798;8.816;2023-05-19T02:24:32;5.17;;;2.10;;
71655;SDS011;59497;48.798;8.816;2023-05-19T02:26:57;3.33;;;2.20;;
71655;SDS011;59497;48.798;8.816;2023-05-19T02:29:23;4.68;;;2.08;;
71655;SDS011;59497;48.798;8.816;2023-05-19T02:31:48;2.57;;;1.73;;
71655;SDS011;59497;48.798;8.816;2023-05-19T02:34:13;5.70;;;2.13;;
71655;SDS011;59497;48.798;8.816;2023-05-19T02:36:39;3.13;;;2.00;;
71655;SDS011;59497;48.798;8.816;2023-05-19T02:39:05;6.13;;;1.60;;
71655;SDS011;59497;48.798;8.816;2023-05-19T02:41:30;3.93;;;1.60;;
71655;SDS011;59497;48.798;8.816;2023-05-19T02:43:55;6.20;;;1.97;;
71655;SDS011;59497;48.798;8.816;2023-05-19T02:46:22;5.32;;;2.33;;
71655;SDS011;59497;48.798;8.816;2023-05-19T02:48:47;3.77;;;2.20;;
71655;SDS011;59497;48.798;8.816;2023-05-19T02:51:12;6.37;;;2.30;;
71655;SDS011;59497;48.798;8.816;2023-05-19T02:53:37;4.97;;;2.28;;
71655;SDS011;59497;48.798;8.816;2023-05-19T02:56:03;5.27;;;2.27;;
71655;SDS011;59497;48.798;8.816;2023-05-19T02:58:28;5.83;;;2.40;;
71655;SDS011;59497;48.798;8.816;2023-05-19T03:00:53;5.17;;;2.47;;
71655;SDS011;59497;48.798;8.816;2023-05-19T03:03:19;3.97;;;2.17;;
71655;SDS011;59497;48.798;8.816;2023-05-19T03:05:45;6.17;;;1.97;;
71655;SDS011;59497;48.798;8.816;2023-05-19T03:08:11;5.77;;;2.13;;
71655;SDS011;59497;48.798;8.816;2023-05-19T03:10:36;4.80;;;1.70;;
71655;SDS011;59497;48.798;8.816;2023-05-19T03:13:01;4.30;;;2.00;;
71655;SDS011;59497;48.798;8.816;2023-05-19T03:15:26;3.43;;;1.87;;
71655;SDS011;59497;48.798;8.816;2023-05-19T03:17:51;5.17;;;2.17;;
71655;SDS011;59497;48.798;8.816;2023-05-19T03:20:17;4.57;;;2.20;;
71655;SDS011;59497;48.798;8.816;2023-05-19T03:22:42;5.03;;;2.20;;
71655;SDS011;59497;48.798;8.816;2023-05-19T03:25:07;5.53;;;2.20;;
71655;SDS011;59497;48.798;8.816;2023-05-19T03:27:33;5.07;;;2.20;;
71655;SDS011;59497;48.798;8.816;2023-05-19T03:29:58;9.15;;;2.90;;
71655;SDS011;59497;48.798;8.816;2023-05-19T03:32:23;5.50;;;2.47;;
71655;SDS011;59497;48.798;8.816;2023-05-19T03:34:48;4.40;;;1.57;;
71655;SDS011;59497;48.798;8.816;2023-05-19T03:37:13;3.93;;;1.87;;
71655;SDS011;59497;48.798;8.816;2023-05-19T03:39:38;6.93;;;1.87;;
71655;SDS011;59497;48.798;8.816;2023-05-19T03:42:04;3.90;;;1.95;;
71655;SDS011;59497;48.798;8.816;2023-05-19T03:44:29;5.37;;;2.60;;
71655;SDS011;59497;48.798;8.816;2023-05-19T03:46:54;3.37;;;1.93;;
71655;SDS011;59497;48.798;8.816;2023-05-19T03:49:19;2.53;;;1.90;;
71655;SDS011;59497;48.798;8.816;2023-05-19T03:51:44;5.77;;;2.10;;
71655;SDS011;59497;48.798;8.816;2023-05-19T03:54:10;3.63;;;1.90;;
71655;SDS011;59497;48.798;8.816;2023-05-19T03:56:37;4.43;;;2.23;;
71655;SDS011;59497;48.798;8.816;2023-05-19T03:59:02;4.80;;;2.03;;
71655;SDS011;59497;48.798;8.816;2023-05-19T04:01:30;5.73;;;1.90;;
71655;SDS011;59497;48.798;8.816;2023-05-19T04:03:55;6.83;;;2.60;;
71655;SDS011;59497;48.798;8.816;2023-05-19T04:06:20;5.07;;;2.20;;
71655;SDS011;59497;48.798;8.816;2023-05-19T04:08:45;3.67;;;2.15;;
71655;SDS011;59497;48.798;8.816;2023-05-19T04:11:11;7.23;;;2.37;;
71655;SDS011;59497;48.798;8.816;2023-05-19T04:13:36;4.00;;;2.10;;
71655;SDS011;59497;48.798;8.816;2023-05-19T04:16:01;6.50;;;2.50;;
71655;SDS011;59497;48.798;8.816;2023-05-19T04:18:26;7.70;;;1.93;;
71655;SDS011;59497;48.798;8.816;2023-05-19T04:20:52;7.90;;;2.50;;
71655;SDS011;59497;48.798;8.816;2023-05-19T04:23:17;3.93;;;2.53;;
71655;SDS011;59497;48.798;8.816;2023-05-19T04:25:42;4.63;;;2.10;;
71655;SDS011;59497;48.798;8.816;2023-05-19T04:28:07;5.10;;;1.90;;
71655;SDS011;59497;48.798;8.816;2023-05-19T04:30:32;4.77;;;2.47;;
71655;SDS011;59497;48.798;8.816;2023-05-19T04:32:58;3.07;;;2.30;;
71655;SDS011;59497;48.798;8.816;2023-05-19T04:35:24;3.45;;;2.40;;
71655;SDS011;59497;48.798;8.816;2023-05-19T04:37:50;2.93;;;1.63;;
71655;SDS011;59497;48.798;8.816;2023-05-19T04:40:18;5.10;;;2.20;;
71655;SDS011;59497;48.798;8.816;2023-05-19T04:42:45;7.22;;;3.10;;
71655;SDS011;59497;48.798;8.816;2023-05-19T04:45:10;5.73;;;2.17;;
71655;SDS011;59497;48.798;8.816;2023-05-19T04:47:38;5.60;;;2.03;;
71655;SDS011;59497;48.798;8.816;2023-05-19T04:50:03;5.23;;;2.10;;
71655;SDS011;59497;48.798;8.816;2023-05-19T04:52:28;5.33;;;2.70;;
71655;SDS011;59497;48.798;8.816;2023-05-19T04:54:54;3.92;;;2.28;;
71655;SDS011;59497;48.798;8.816;2023-05-19T04:57:20;4.83;;;1.90;;
71655;SDS011;59497;48.798;8.816;2023-05-19T04:59:45;5.80;;;2.33;;
71655;SDS011;59497;48.798;8.816;2023-05-19T05:02:10;3.50;;;2.13;;
71655;SDS011;59497;48.798;8.816;2023-05-19T05:04:35;5.93;;;2.50;;
71655;SDS011;59497;48.798;8.816;2023-05-19T05:07:01;7.90;;;2.22;;
71655;SDS011;59497;48.798;8.816;2023-05-19T05:09:26;2.80;;;2.20;;
71655;SDS011;59497;48.798;8.816;2023-05-19T05:11:51;7.20;;;2.70;;
71655;SDS011;59497;48.798;8.816;2023-05-19T05:14:17;5.63;;;2.60;;
71655;SDS011;59497;48.798;8.816;2023-05-19T05:16:42;3.30;;;2.10;;
71655;SDS011;59497;48.798;8.816;2023-05-19T05:19:07;4.57;;;2.50;;
71655;SDS011;59497;48.798;8.816;2023-05-19T05:21:32;6.00;;;2.30;;
71655;SDS011;59497;48.798;8.816;2023-05-19T05:23:58;5.30;;;2.50;;
71655;SDS011;59497;48.798;8.816;2023-05-19T05:26:27;4.93;;;2.35;;
71655;SDS011;59497;48.798;8.816;2023-05-19T05:28:53;2.67;;;1.87;;
71655;SDS011;59497;48.798;8.816;2023-05-19T05:31:19;4.97;;;2.23;;
71655;SDS011;59497;48.798;8.816;2023-05-19T05:33:45;6.35;;;2.30;;
71655;SDS011;59497;48.798;8.816;2023-05-19T05:36:10;5.43;;;2.70;;
71655;SDS011;59497;48.798;8.816;2023-05-19T05:38:35;6.93;;;2.50;;
71655;SDS011;59497;48.798;8.816;2023-05-19T05:41:00;6.17;;;2.93;;
71655;SDS011;59497;48.798;8.816;2023-05-19T05:43:27;3.75;;;2.33;;
71655;SDS011;59497;48.798;8.816;2023-05-19T05:45:52;4.77;;;2.33;;
71655;SDS011;59497;48.798;8.816;2023-05-19T05:48:17;3.63;;;2.60;;
71655;SDS011;59497;48.798;8.816;2023-05-19T05:50:42;6.53;;;2.30;;
71655;SDS011;59497;48.798;8.816;2023-05-19T05:53:08;5.70;;;2.22;;
71655;SDS011;59497;48.798;8.816;2023-05-19T05:55:34;5.60;;;1.98;;
71655;SDS011;59497;48.798;8.816;2023-05-19T05:58:00;4.43;;;2.40;;
71655;SDS011;59497;48.798;8.816;2023-05-19T06:00:26;5.07;;;2.40;;
71655;SDS011;59497;48.798;8.816;2023-05-19T06:02:52;3.55;;;2.30;;
71655;SDS011;59497;48.798;8.816;2023-05-19T06:05:17;4.47;;;2.20;;
71655;SDS011;59497;48.798;8.816;2023-05-19T06:07:42;5.50;;;2.57;;
71655;SDS011;59497;48.798;8.816;2023-05-19T06:10:08;5.17;;;2.43;;
71655;SDS011;59497;48.798;8.816;2023-05-19T06:12:33;5.97;;;2.87;;
71655;SDS011;59497;48.798;8.816;2023-05-19T06:14:59;5.97;;;2.45;;
71655;SDS011;59497;48.798;8.816;2023-05-19T06:17:24;4.83;;;2.47;;
71655;SDS011;59497;48.798;8.816;2023-05-19T06:19:49;3.27;;;2.07;;
71655;SDS011;59497;48.798;8.816;2023-05-19T06:22:15;2.67;;;2.00;;
71655;SDS011;59497;48.798;8.816;2023-05-19T06:24:40;3.93;;;2.10;;
71655;SDS011;59497;48.798;8.816;2023-05-19T06:27:05;5.70;;;2.60;;
71655;SDS011;59497;48.798;8.816;2023-05-19T06:29:30;4.90;;;2.50;;
71655;SDS011;59497;48.798;8.816;2023-05-19T06:31:55;3.97;;;2.53;;
71655;SDS011;59497;48.798;8.816;2023-05-19T06:34:20;5.97;;;3.10;;
71655;SDS011;59497;48.798;8.816;2023-05-19T06:36:46;4.47;;;2.40;;
71655;SDS011;59497;48.798;8.816;2023-05-19T06:39:11;4.97;;;3.10;;
71655;SDS011;59497;48.798;8.816;2023-05-19T06:41:36;5.57;;;3.10;;
71655;SDS011;59497;48.798;8.816;2023-05-19T06:44:02;5.07;;;2.43;;
71655;SDS011;59497;48.798;8.816;2023-05-19T06:46:27;3.97;;;2.58;;
71655;SDS011;59497;48.798;8.816;2023-05-19T06:48:52;4.73;;;2.77;;
71655;SDS011;59497;48.798;8.816;2023-05-19T06:51:18;8.37;;;2.37;;
71655;SDS011;59497;48.798;8.816;2023-05-19T06:53:45;5.72;;;2.20;;
71655;SDS011;59497;48.798;8.816;2023-05-19T06:56:11;3.40;;;2.20;;
71655;SDS011;59497;48.798;8.816;2023-05-19T06:58:36;5.07;;;2.43;;
71655;SDS011;59497;48.798;8.816;2023-05-19T07:01:01;5.30;;;2.83;;
71655;SDS011;59497;48.798;8.816;2023-05-19T07:03:26;7.65;;;2.67;;
71655;SDS011;59497;48.798;8.816;2023-05-19T07:05:52;6.60;;;2.83;;
71655;SDS011;59497;48.798;8.816;2023-05-19T07:08:17;7.13;;;2.60;;
71655;SDS011;59497;48.798;8.816;2023-05-19T07:10:42;5.07;;;2.90;;
71655;SDS011;59497;48.798;8.816;2023-05-19T07:13:07;5.75;;;3.13;;
71655;SDS011;59497;48.798;8.816;2023-05-19T07:15:32;4.57;;;2.70;;
71655;SDS011;59497;48.798;8.816;2023-05-19T07:17:58;6.10;;;2.60;;
71655;SDS011;59497;48.798;8.816;2023-05-19T07:20:23;5.37;;;2.80;;
71655;SDS011;59497;48.798;8.816;2023-05-19T07:22:48;4.93;;;2.53;;
71655;SDS011;59497;48.798;8.816;2023-05-19T07:25:13;6.97;;;2.80;;
71655;SDS011;59497;48.798;8.816;2023-05-19T07:27:38;5.57;;;2.97;;
71655;SDS011;59497;48.798;8.816;2023-05-19T07:30:03;4.97;;;2.63;;
71655;SDS011;59497;48.798;8.816;2023-05-19T07:32:29;6.40;;;3.77;;
71655;SDS011;59497;48.798;8.816;2023-05-19T07:34:54;5.93;;;3.13;;
71655;SDS011;59497;48.798;8.816;2023-05-19T07:37:19;4.80;;;2.23;;
71655;SDS011;59497;48.798;8.816;2023-05-19T07:39:44;6.60;;;3.40;;
71655;SDS011;59497;48.798;8.816;2023-05-19T07:42:09;5.50;;;3.60;;
71655;SDS011;59497;48.798;8.816;2023-05-19T07:44:35;4.90;;;2.80;;
71655;SDS011;59497;48.798;8.816;2023-05-19T07:47:00;7.43;;;3.40;;
71655;SDS011;59497;48.798;8.816;2023-05-19T07:49:25;5.28;;;3.25;;
71655;SDS011;59497;48.798;8.816;2023-05-19T07:51:51;9.25;;;3.30;;
71655;SDS011;59497;48.798;8.816;2023-05-19T07:54:16;5.07;;;3.70;;
71655;SDS011;59497;48.798;8.816;2023-05-19T07:56:41;6.33;;;3.00;;
71655;SDS011;59497;48.798;8.816;2023-05-19T07:59:06;5.77;;;2.37;;
71655;SDS011;59497;48.798;8.816;2023-05-19T08:01:32;7.97;;;3.10;;
71655;SDS011;59497;48.798;8.816;2023-05-19T08:03:57;6.47;;;3.13;;
71655;SDS011;59497;48.798;8.816;2023-05-19T08:06:22;5.00;;;3.10;;
71655;SDS011;59497;48.798;8.816;2023-05-19T08:08:49;6.25;;;3.28;;
71655;SDS011;59497;48.798;8.816;2023-05-19T08:11:14;5.23;;;3.10;;
71655;SDS011;59497;48.798;8.816;2023-05-19T08:13:40;6.55;;;2.83;;
71655;SDS011;59497;48.798;8.816;2023-05-19T08:16:05;7.33;;;3.00;;
71655;SDS011;59497;48.798;8.816;2023-05-19T08:18:31;6.90;;;3.10;;
71655;SDS011;59497;48.798;8.816;2023-05-19T08:20:56;6.10;;;3.27;;
71655;SDS011;59497;48.798;8.816;2023-05-19T08:23:21;6.33;;;3.33;;
71655;SDS011;59497;48.798;8.816;2023-05-19T08:25:46;5.53;;;3.10;;
71655;SDS011;59497;48.798;8.816;2023-05-19T08:28:12;6.47;;;3.70;;
71655;SDS011;59497;48.798;8.816;2023-05-19T08:30:37;5.73;;;2.70;;
71655;SDS011;59497;48.798;8.816;2023-05-19T08:33:02;8.07;;;3.37;;
71655;SDS011;59497;48.798;8.816;2023-05-19T08:35:27;8.07;;;4.90;;
71655;SDS011;59497;48.798;8.816;2023-05-19T08:37:52;7.80;;;3.07;;
71655;SDS011;59497;48.798;8.816;2023-05-19T08:40:18;5.43;;;2.70;;
71655;SDS011;59497;48.798;8.816;2023-05-19T08:42:44;6.75;;;3.33;;
71655;SDS011;59497;48.798;8.816;2023-05-19T08:45:09;7.07;;;4.70;;
71655;SDS011;59497;48.798;8.816;2023-05-19T08:47:35;7.90;;;3.30;;
71655;SDS011;59497;48.798;8.816;2023-05-19T08:50:03;6.23;;;3.20;;
71655;SDS011;59497;48.798;8.816;2023-05-19T08:52:46;7.70;;;4.53;;
71655;SDS011;59497;48.798;8.816;2023-05-19T08:58:02;9.55;;;4.10;;
71655;SDS011;59497;48.798;8.816;2023-05-19T09:00:28;10.43;;;3.63;;
71655;SDS011;59497;48.798;8.816;2023-05-19T09:02:53;6.97;;;3.47;;
71655;SDS011;59497;48.798;8.816;2023-05-19T09:05:19;10.30;;;5.13;;
71655;SDS011;59497;48.798;8.816;2023-05-19T09:07:44;13.53;;;6.73;;
71655;SDS011;59497;48.798;8.816;2023-05-19T09:10:10;11.38;;;5.18;;
71655;SDS011;59497;48.798;8.816;2023-05-19T09:12:40;12.40;;;6.85;;
71655;SDS011;59497;48.798;8.816;2023-05-19T09:15:06;6.47;;;3.67;;
71655;SDS011;59497;48.798;8.816;2023-05-19T09:17:32;9.60;;;4.93;;
71655;SDS011;59497;48.798;8.816;2023-05-19T09:20:00;9.63;;;5.57;;
71655;SDS011;59497;48.798;8.816;2023-05-19T09:22:25;8.13;;;4.20;;
71655;SDS011;59497;48.798;8.816;2023-05-19T09:24:51;9.30;;;4.60;;
71655;SDS011;59497;48.798;8.816;2023-05-19T09:27:22;6.35;;;3.58;;
71655;SDS011;59497;48.798;8.816;2023-05-19T09:29:48;6.85;;;2.53;;
71655;SDS011;59497;48.798;8.816;2023-05-19T09:32:22;3.83;;;2.27;;
71655;SDS011;59497;48.798;8.816;2023-05-19T09:34:48;5.25;;;3.22;;
71655;SDS011;59497;48.798;8.816;2023-05-19T09:37:14;7.65;;;4.07;;
71655;SDS011;59497;48.798;8.816;2023-05-19T09:39:40;6.03;;;3.63;;
71655;SDS011;59497;48.798;8.816;2023-05-19T09:42:05;5.83;;;3.03;;
71655;SDS011;59497;48.798;8.816;2023-05-19T09:44:30;3.87;;;2.90;;
71655;SDS011;59497;48.798;8.816;2023-05-19T09:46:57;8.18;;;3.97;;
71655;SDS011;59497;48.798;8.816;2023-05-19T09:49:26;7.27;;;3.67;;
71655;SDS011;59497;48.798;8.816;2023-05-19T09:51:58;8.40;;;4.05;;
71655;SDS011;59497;48.798;8.816;2023-05-19T09:54:24;6.60;;;3.30;;
71655;SDS011;59497;48.798;8.816;2023-05-19T09:56:59;5.53;;;2.97;;
71655;SDS011;59497;48.798;8.816;2023-05-19T09:59:24;4.57;;;2.58;;
71655;SDS011;59497;48.798;8.816;2023-05-19T10:01:54;6.73;;;2.60;;
71655;SDS011;59497;48.798;8.816;2023-05-19T10:04:20;7.45;;;3.28;;
71655;SDS011;59497;48.798;8.816;2023-05-19T10:06:46;6.05;;;2.50;;
71655;SDS011;59497;48.798;8.816;2023-05-19T10:09:17;6.13;;;3.40;;
71655;SDS011;59497;48.798;8.816;2023-05-19T10:11:43;5.90;;;3.00;;
71655;SDS011;59497;48.798;8.816;2023-05-19T10:14:09;5.10;;;2.67;;
71655;SDS011;59497;48.798;8.816;2023-05-19T10:16:34;3.33;;;2.53;;
71655;SDS011;59497;48.798;8.816;2023-05-19T10:19:00;9.57;;;3.23;;
71655;SDS011;59497;48.798;8.816;2023-05-19T10:21:26;4.28;;;2.70;;
71655;SDS011;59497;48.798;8.816;2023-05-19T10:23:51;5.33;;;2.70;;
71655;SDS011;59497;48.798;8.816;2023-05-19T10:26:16;4.47;;;2.77;;
71655;SDS011;59497;48.798;8.816;2023-05-19T10:28:41;5.17;;;2.70;;
71655;SDS011;59497;48.798;8.816;2023-05-19T10:31:10;4.78;;;2.72;;
71655;SDS011;59497;48.798;8.816;2023-05-19T10:33:40;3.92;;;2.53;;
71655;SDS011;59497;48.798;8.816;2023-05-19T10:36:13;4.63;;;2.67;;
71655;SDS011;59497;48.798;8.816;2023-05-19T10:38:47;6.07;;;3.60;;
71655;SDS011;59497;48.798;8.816;2023-05-19T10:41:38;4.78;;;3.17;;
71655;SDS011;59497;48.798;8.816;2023-05-19T10:46:34;6.18;;;2.90;;
71655;SDS011;59497;48.798;8.816;2023-05-19T10:48:59;8.37;;;2.90;;
71655;SDS011;59497;48.798;8.816;2023-05-19T10:51:29;5.93;;;2.57;;
71655;SDS011;59497;48.798;8.816;2023-05-19T10:53:55;5.47;;;2.90;;
71655;SDS011;59497;48.798;8.816;2023-05-19T10:56:32;4.17;;;2.47;;
71655;SDS011;59497;48.798;8.816;2023-05-19T10:58:59;5.40;;;2.25;;
71655;SDS011;59497;48.798;8.816;2023-05-19T11:01:31;5.43;;;2.85;;
71655;SDS011;59497;48.798;8.816;2023-05-19T11:03:57;4.32;;;2.55;;
71655;SDS011;59497;48.798;8.816;2023-05-19T11:06:29;5.87;;;2.83;;
71655;SDS011;59497;48.798;8.816;2023-05-19T11:08:56;4.32;;;2.22;;
71655;SDS011;59497;48.798;8.816;2023-05-19T11:11:21;4.55;;;2.53;;
71655;SDS011;59497;48.798;8.816;2023-05-19T11:13:48;3.20;;;2.23;;
71655;SDS011;59497;48.798;8.816;2023-05-19T11:16:16;5.38;;;2.80;;
71655;SDS011;59497;48.798;8.816;2023-05-19T11:18:42;4.03;;;2.40;;
71655;SDS011;59497;48.798;8.816;2023-05-19T11:21:07;4.07;;;2.53;;
71655;SDS011;59497;48.798;8.816;2023-05-19T11:23:32;3.50;;;2.60;;
71655;SDS011;59497;48.798;8.816;2023-05-19T11:26:01;4.38;;;2.28;;
71655;SDS011;59497;48.798;8.816;2023-05-19T11:28:27;3.90;;;2.13;;
71655;SDS011;59497;48.798;8.816;2023-05-19T11:30:54;6.13;;;2.83;;
71655;SDS011;59497;48.798;8.816;2023-05-19T11:33:21;8.70;;;2.97;;
71655;SDS011;59497;48.798;8.816;2023-05-19T11:35:51;4.67;;;2.77;;
71655;SDS011;59497;48.798;8.816;2023-05-19T11:38:17;5.75;;;2.63;;
71655;SDS011;59497;48.798;8.816;2023-05-19T11:40:43;4.47;;;2.60;;
71655;SDS011;59497;48.798;8.816;2023-05-19T11:43:08;3.77;;;2.63;;
71655;SDS011;59497;48.798;8.816;2023-05-19T11:45:33;5.37;;;2.97;;
71655;SDS011;59497;48.798;8.816;2023-05-19T11:47:59;5.07;;;2.60;;
71655;SDS011;59497;48.798;8.816;2023-05-19T11:50:24;5.38;;;2.70;;
71655;SDS011;59497;48.798;8.816;2023-05-19T11:52:52;5.40;;;2.80;;
71655;SDS011;59497;48.798;8.816;2023-05-19T11:55:20;5.05;;;2.70;;
71655;SDS011;59497;48.798;8.816;2023-05-19T12:00:23;4.60;;;2.65;;
71655;SDS011;59497;48.798;8.816;2023-05-19T12:02:49;5.47;;;2.88;;
71655;SDS011;59497;48.798;8.816;2023-05-19T12:05:32;3.77;;;2.33;;
71655;SDS011;59497;48.798;8.816;2023-05-19T12:08:00;5.45;;;3.40;;
71655;SDS011;59497;48.798;8.816;2023-05-19T12:10:26;4.53;;;2.67;;
71655;SDS011;59497;48.798;8.816;2023-05-19T12:12:52;5.50;;;2.73;;
71655;SDS011;59497;48.798;8.816;2023-05-19T12:15:21;4.57;;;3.00;;
71655;SDS011;59497;48.798;8.816;2023-05-19T12:17:49;4.40;;;2.30;;
71655;SDS011;59497;48.798;8.816;2023-05-19T12:20:15;4.03;;;2.77;;
71655;SDS011;59497;48.798;8.816;2023-05-19T12:22:41;3.67;;;2.90;;
71655;SDS011;59497;48.798;8.816;2023-05-19T12:25:06;5.13;;;2.93;;
71655;SDS011;59497;48.798;8.816;2023-05-19T12:27:33;5.77;;;2.80;;
71655;SDS011;59497;48.798;8.816;2023-05-19T12:29:59;7.45;;;2.90;;
71655;SDS011;59497;48.798;8.816;2023-05-19T12:32:27;4.33;;;2.53;;
71655;SDS011;59497;48.798;8.816;2023-05-19T12:34:56;5.75;;;3.33;;
71655;SDS011;59497;48.798;8.816;2023-05-19T12:37:21;6.67;;;2.63;;
71655;SDS011;59497;48.798;8.816;2023-05-19T12:39:49;7.87;;;3.17;;
71655;SDS011;59497;48.798;8.816;2023-05-19T12:42:14;5.10;;;2.75;;
71655;SDS011;59497;48.798;8.816;2023-05-19T12:44:43;5.03;;;2.83;;
71655;SDS011;59497;48.798;8.816;2023-05-19T12:47:10;5.72;;;2.92;;
71655;SDS011;59497;48.798;8.816;2023-05-19T12:49:35;5.70;;;2.57;;
71655;SDS011;59497;48.798;8.816;2023-05-19T12:52:01;7.27;;;3.00;;
71655;SDS011;59497;48.798;8.816;2023-05-19T12:54:27;6.50;;;3.03;;
71655;SDS011;59497;48.798;8.816;2023-05-19T12:56:57;5.65;;;3.13;;
71655;SDS011;59497;48.798;8.816;2023-05-19T12:59:23;7.45;;;3.28;;
71655;SDS011;59497;48.798;8.816;2023-05-19T13:01:55;5.17;;;2.80;;
71655;SDS011;59497;48.798;8.816;2023-05-19T13:04:21;5.80;;;2.90;;
71655;SDS011;59497;48.798;8.816;2023-05-19T13:06:46;4.50;;;2.60;;
71655;SDS011;59497;48.798;8.816;2023-05-19T13:09:13;3.58;;;2.83;;
71655;SDS011;59497;48.798;8.816;2023-05-19T13:11:38;6.50;;;3.17;;
71655;SDS011;59497;48.798;8.816;2023-05-19T13:14:04;5.68;;;3.03;;
71655;SDS011;59497;48.798;8.816;2023-05-19T13:16:29;5.77;;;3.53;;
71655;SDS011;59497;48.798;8.816;2023-05-19T13:18:54;5.80;;;2.85;;
71655;SDS011;59497;48.798;8.816;2023-05-19T13:21:19;6.15;;;3.25;;
71655;SDS011;59497;48.798;8.816;2023-05-19T13:23:45;7.87;;;2.93;;
71655;SDS011;59497;48.798;8.816;2023-05-19T13:26:10;6.20;;;3.10;;
71655;SDS011;59497;48.798;8.816;2023-05-19T13:28:37;11.47;;;6.00;;
71655;SDS011;59497;48.798;8.816;2023-05-19T13:31:02;5.73;;;3.67;;
71655;SDS011;59497;48.798;8.816;2023-05-19T13:33:27;7.57;;;3.70;;
71655;SDS011;59497;48.798;8.816;2023-05-19T13:35:52;8.30;;;3.13;;
71655;SDS011;59497;48.798;8.816;2023-05-19T13:38:17;4.57;;;3.43;;
71655;SDS011;59497;48.798;8.816;2023-05-19T13:40:43;4.70;;;3.13;;
71655;SDS011;59497;48.798;8.816;2023-05-19T13:43:08;5.13;;;3.00;;
71655;SDS011;59497;48.798;8.816;2023-05-19T13:45:33;9.00;;;3.73;;
71655;SDS011;59497;48.798;8.816;2023-05-19T13:47:58;6.07;;;3.57;;
71655;SDS011;59497;48.798;8.816;2023-05-19T13:50:24;9.43;;;3.30;;
71655;SDS011;59497;48.798;8.816;2023-05-19T13:52:49;7.40;;;3.67;;
71655;SDS011;59497;48.798;8.816;2023-05-19T13:55:14;7.15;;;3.45;;
71655;SDS011;59497;48.798;8.816;2023-05-19T13:57:40;7.97;;;3.60;;
71655;SDS011;59497;48.798;8.816;2023-05-19T14:00:05;6.53;;;3.33;;
71655;SDS011;59497;48.798;8.816;2023-05-19T14:02:31;8.45;;;3.47;;
71655;SDS011;59497;48.798;8.816;2023-05-19T14:04:56;6.00;;;3.20;;
71655;SDS011;59497;48.798;8.816;2023-05-19T14:07:22;4.07;;;3.10;;
71655;SDS011;59497;48.798;8.816;2023-05-19T14:09:47;5.00;;;3.20;;
71655;SDS011;59497;48.798;8.816;2023-05-19T14:12:14;5.83;;;3.27;;
71655;SDS011;59497;48.798;8.816;2023-05-19T14:14:40;5.73;;;3.20;;
71655;SDS011;59497;48.798;8.816;2023-05-19T14:17:05;6.20;;;3.27;;
71655;SDS011;59497;48.798;8.816;2023-05-19T14:19:30;7.43;;;3.70;;
71655;SDS011;59497;48.798;8.816;2023-05-19T14:21:56;6.50;;;3.10;;
71655;SDS011;59497;48.798;8.816;2023-05-19T14:24:21;7.30;;;3.75;;
71655;SDS011;59497;48.798;8.816;2023-05-19T14:26:46;5.10;;;3.10;;
71655;SDS011;59497;48.798;8.816;2023-05-19T14:29:11;4.33;;;2.90;;
71655;SDS011;59497;48.798;8.816;2023-05-19T14:31:36;5.63;;;3.10;;
71655;SDS011;59497;48.798;8.816;2023-05-19T14:34:02;5.70;;;2.92;;
71655;SDS011;59497;48.798;8.816;2023-05-19T14:36:27;5.43;;;3.23;;
71655;SDS011;59497;48.798;8.816;2023-05-19T14:38:52;6.20;;;3.40;;
71655;SDS011;59497;48.798;8.816;2023-05-19T14:41:17;5.70;;;3.00;;
71655;SDS011;59497;48.798;8.816;2023-05-19T14:43:42;4.53;;;2.60;;
71655;SDS011;59497;48.798;8.816;2023-05-19T14:46:07;6.27;;;3.10;;
71655;SDS011;59497;48.798;8.816;2023-05-19T14:48:33;6.47;;;3.30;;
71655;SDS011;59497;48.798;8.816;2023-05-19T14:50:58;7.33;;;3.33;;
71655;SDS011;59497;48.798;8.816;2023-05-19T14:53:24;6.43;;;3.20;;
71655;SDS011;59497;48.798;8.816;2023-05-19T14:55:49;7.90;;;3.10;;